sensor_id;sensor_type;location;lat;lon;timestamp;pressure;altitude;pressure_sealevel;temperature;humidity
35647;BME280;28680;45.642;13.756;2023-04-09T00:02:23;101593.63;;;11.61;100.00
35647;BME280;28680;45.642;13.756;2023-04-09T00:04:49;101596.97;;;12.02;100.00
35647;BME280;28680;45.642;13.756;2023-04-09T00:07:15;101595.31;;;11.75;100.00
35647;BME280;28680;45.642;13.756;2023-04-09T00:09:41;101599.84;;;11.35;100.00
35647;BME280;28680;45.642;13.756;2023-04-09T00:12:07;101590.16;;;11.48;100.00
35647;BME280;28680;45.642;13.756;2023-04-09T00:14:33;101591.72;;;11.38;100.00
35647;BME280;28680;45.642;13.756;2023-04-09T00:16:58;101590.34;;;11.32;100.00
35647;BME280;28680;45.642;13.756;2023-04-09T00:19:24;101595.63;;;11.19;100.00
35647;BME280;28680;45.642;13.756;2023-04-09T00:21:50;101589.94;;;11.25;100.00
35647;BME280;28680;45.642;13.756;2023-04-09T00:24:17;101587.31;;;11.51;100.00
35647;BME280;28680;45.642;13.756;2023-04-09T00:26:43;101598.66;;;11.26;100.00
35647;BME280;28680;45.642;13.756;2023-04-09T00:29:09;101588.66;;;11.18;100.00
35647;BME280;28680;45.642;13.756;2023-04-09T00:31:35;101587.53;;;11.35;100.00
35647;BME280;28680;45.642;13.756;2023-04-09T00:34:00;101588.28;;;11.37;100.00
35647;BME280;28680;45.642;13.756;2023-04-09T00:36:26;101592.78;;;11.35;100.00
35647;BME280;28680;45.642;13.756;2023-04-09T00:38:52;101595.31;;;11.75;100.00
35647;BME280;28680;45.642;13.756;2023-04-09T00:41:18;101606.13;;;11.45;100.00
35647;BME280;28680;45.642;13.756;2023-04-09T00:43:45;101608.88;;;11.69;100.00
35647;BME280;28680;45.642;13.756;2023-04-09T00:46:11;101601.06;;;11.16;100.00
35647;BME280;28680;45.642;13.756;2023-04-09T00:48:37;101611.63;;;10.89;100.00
35647;BME280;28680;45.642;13.756;2023-04-09T00:51:04;101613.31;;;10.90;100.00
35647;BME280;28680;45.642;13.756;2023-04-09T00:53:30;101611.59;;;11.16;100.00
35647;BME280;28680;45.642;13.756;2023-04-09T00:55:56;101616.28;;;11.11;100.00
35647;BME280;28680;45.642;13.756;2023-04-09T00:58:22;101623.16;;;11.14;100.00
35647;BME280;28680;45.642;13.756;2023-04-09T01:00:48;101633.53;;;11.15;100.00
35647;BME280;28680;45.642;13.756;2023-04-09T01:03:14;101625.66;;;11.02;100.00
35647;BME280;28680;45.642;13.756;2023-04-09T01:06:16;101633.03;;;11.36;100.00
35647;BME280;28680;45.642;13.756;2023-04-09T01:11:45;101627.78;;;10.83;100.00
35647;BME280;28680;45.642;13.756;2023-04-09T01:14:38;101628.19;;;11.17;100.00
35647;BME280;28680;45.642;13.756;2023-04-09T01:17:15;101619.84;;;10.97;100.00
35647;BME280;28680;45.642;13.756;2023-04-09T01:20:04;101622.03;;;10.90;100.00
35647;BME280;28680;45.642;13.756;2023-04-09T01:23:17;101633.75;;;10.72;100.00
35647;BME280;28680;45.642;13.756;2023-04-09T01:26:20;101627.34;;;10.76;100.00
35647;BME280;28680;45.642;13.756;2023-04-09T01:28:53;101627.84;;;10.68;100.00
35647;BME280;28680;45.642;13.756;2023-04-09T01:31:28;101623.22;;;10.99;100.00
35647;BME280;28680;45.642;13.756;2023-04-09T01:33:56;101626.06;;;11.09;100.00
35647;BME280;28680;45.642;13.756;2023-04-09T01:36:25;101621.66;;;11.09;100.00
35647;BME280;28680;45.642;13.756;2023-04-09T01:38:52;101627.88;;;11.08;100.00
35647;BME280;28680;45.642;13.756;2023-04-09T01:41:21;101622.19;;;10.75;100.00
35647;BME280;28680;45.642;13.756;2023-04-09T01:43:52;101623.97;;;10.74;100.00
35647;BME280;28680;45.642;13.756;2023-04-09T01:46:18;101624.91;;;10.73;100.00
35647;BME280;28680;45.642;13.756;2023-04-09T01:48:46;101619.22;;;10.66;100.00
35647;BME280;28680;45.642;13.756;2023-04-09T01:51:13;101625.88;;;10.72;100.00
35647;BME280;28680;45.642;13.756;2023-04-09T01:53:40;101617.91;;;10.86;100.00
35647;BME280;28680;45.642;13.756;2023-04-09T01:56:07;101624.03;;;10.60;100.00
35647;BME280;28680;45.642;13.756;2023-04-09T01:58:34;101631.94;;;10.72;100.00
35647;BME280;28680;45.642;13.756;2023-04-09T02:01:23;101623.34;;;10.70;100.00
35647;BME280;28680;45.642;13.756;2023-04-09T02:03:55;101621.13;;;10.64;100.00
35647;BME280;28680;45.642;13.756;2023-04-09T02:07:09;101618.22;;;10.54;100.00
35647;BME280;28680;45.642;13.756;2023-04-09T02:09:38;101631.91;;;10.60;100.00
35647;BME280;28680;45.642;13.756;2023-04-09T02:12:06;101621.59;;;10.57;100.00
35647;BME280;28680;45.642;13.756;2023-04-09T02:14:35;101627.31;;;10.49;100.00
35647;BME280;28680;45.642;13.756;2023-04-09T02:17:02;101636.06;;;10.21;100.00
35647;BME280;28680;45.642;13.756;2023-04-09T02:19:45;101620.44;;;10.05;100.00
35647;BME280;28680;45.642;13.756;2023-04-09T02:22:13;101641.44;;;10.05;100.00
35647;BME280;28680;45.642;13.756;2023-04-09T02:24:39;101640.78;;;10.15;100.00
35647;BME280;28680;45.642;13.756;2023-04-09T02:27:06;101647.41;;;10.21;100.00
35647;BME280;28680;45.642;13.756;2023-04-09T02:29:33;101641.31;;;10.21;100.00
35647;BME280;28680;45.642;13.756;2023-04-09T02:31:59;101645.06;;;10.17;100.00
35647;BME280;28680;45.642;13.756;2023-04-09T02:34:25;101657.56;;;9.99;100.00
35647;BME280;28680;45.642;13.756;2023-04-09T02:36:51;101649.84;;;9.95;100.00
35647;BME280;28680;45.642;13.756;2023-04-09T02:39:16;101650.34;;;10.31;100.00
35647;BME280;28680;45.642;13.756;2023-04-09T02:41:43;101656.72;;;9.98;100.00
35647;BME280;28680;45.642;13.756;2023-04-09T02:44:09;101664.00;;;10.07;100.00
35647;BME280;28680;45.642;13.756;2023-04-09T02:46:35;101671.50;;;9.99;100.00
35647;BME280;28680;45.642;13.756;2023-04-09T02:49:01;101663.16;;;10.36;100.00
35647;BME280;28680;45.642;13.756;2023-04-09T02:51:27;101669.16;;;10.38;100.00
35647;BME280;28680;45.642;13.756;2023-04-09T02:53:52;101674.00;;;10.15;100.00
35647;BME280;28680;45.642;13.756;2023-04-09T02:56:18;101673.13;;;10.30;100.00
35647;BME280;28680;45.642;13.756;2023-04-09T02:58:44;101666.44;;;10.10;100.00
35647;BME280;28680;45.642;13.756;2023-04-09T03:01:10;101668.69;;;10.02;100.00
35647;BME280;28680;45.642;13.756;2023-04-09T03:03:36;101669.53;;;10.03;100.00
35647;BME280;28680;45.642;13.756;2023-04-09T03:06:03;101673.28;;;9.99;100.00
35647;BME280;28680;45.642;13.756;2023-04-09T03:08:29;101670.47;;;9.87;100.00
35647;BME280;28680;45.642;13.756;2023-04-09T03:10:55;101669.81;;;9.98;100.00
35647;BME280;28680;45.642;13.756;2023-04-09T03:13:21;101675.81;;;10.00;100.00
35647;BME280;28680;45.642;13.756;2023-04-09T03:15:51;101676.16;;;9.94;100.00
35647;BME280;28680;45.642;13.756;2023-04-09T03:18:19;101670.16;;;10.21;100.00
35647;BME280;28680;45.642;13.756;2023-04-09T03:20:45;101666.03;;;10.60;100.00
35647;BME280;28680;45.642;13.756;2023-04-09T03:23:11;101671.16;;;10.34;100.00
35647;BME280;28680;45.642;13.756;2023-04-09T03:25:37;101672.91;;;10.05;100.00
35647;BME280;28680;45.642;13.756;2023-04-09T03:28:03;101671.94;;;9.77;100.00
35647;BME280;28680;45.642;13.756;2023-04-09T03:30:29;101666.34;;;9.98;100.00
35647;BME280;28680;45.642;13.756;2023-04-09T03:32:55;101673.25;;;9.84;100.00
35647;BME280;28680;45.642;13.756;2023-04-09T03:35:21;101660.91;;;9.72;100.00
35647;BME280;28680;45.642;13.756;2023-04-09T03:37:47;101670.44;;;9.73;100.00
35647;BME280;28680;45.642;13.756;2023-04-09T03:40:13;101660.72;;;9.75;100.00
35647;BME280;28680;45.642;13.756;2023-04-09T03:42:42;101672.19;;;9.44;100.00
35647;BME280;28680;45.642;13.756;2023-04-09T03:45:08;101672.91;;;9.76;100.00
35647;BME280;28680;45.642;13.756;2023-04-09T03:47:34;101647.41;;;10.50;100.00
35647;BME280;28680;45.642;13.756;2023-04-09T03:50:00;101662.28;;;10.21;100.00
35647;BME280;28680;45.642;13.756;2023-04-09T03:52:26;101657.34;;;9.87;100.00
35647;BME280;28680;45.642;13.756;2023-04-09T03:54:52;101663.44;;;9.88;100.00
35647;BME280;28680;45.642;13.756;2023-04-09T03:57:18;101659.13;;;9.72;100.00
35647;BME280;28680;45.642;13.756;2023-04-09T03:59:44;101679.34;;;9.70;100.00
35647;BME280;28680;45.642;13.756;2023-04-09T04:02:10;101673.94;;;9.73;100.00
35647;BME280;28680;45.642;13.756;2023-04-09T04:04:36;101672.50;;;9.23;100.00
35647;BME280;28680;45.642;13.756;2023-04-09T04:07:04;101686.03;;;9.46;100.00
35647;BME280;28680;45.642;13.756;2023-04-09T04:09:30;101671.28;;;9.59;100.00
35647;BME280;28680;45.642;13.756;2023-04-09T04:11:56;101672.59;;;9.66;100.00
35647;BME280;28680;45.642;13.756;2023-04-09T04:14:23;101667.50;;;9.49;100.00
35647;BME280;28680;45.642;13.756;2023-04-09T04:16:49;101672.94;;;9.60;100.00
35647;BME280;28680;45.642;13.756;2023-04-09T04:19:15;101674.44;;;9.50;100.00
35647;BME280;28680;45.642;13.756;2023-04-09T04:21:41;101669.25;;;9.34;100.00
35647;BME280;28680;45.642;13.756;2023-04-09T04:24:07;101675.94;;;9.54;100.00
35647;BME280;28680;45.642;13.756;2023-04-09T04:26:33;101690.00;;;9.53;100.00
35647;BME280;28680;45.642;13.756;2023-04-09T04:28:58;101649.13;;;11.31;100.00
35647;BME280;28680;45.642;13.756;2023-04-09T04:31:24;101676.56;;;10.02;100.00
35647;BME280;28680;45.642;13.756;2023-04-09T04:33:50;101683.34;;;9.62;100.00
35647;BME280;28680;45.642;13.756;2023-04-09T04:36:16;101678.94;;;9.48;100.00
35647;BME280;28680;45.642;13.756;2023-04-09T04:38:42;101687.63;;;9.48;100.00
35647;BME280;28680;45.642;13.756;2023-04-09T04:41:09;101684.75;;;9.53;100.00
35647;BME280;28680;45.642;13.756;2023-04-09T04:43:35;101692.31;;;9.57;100.00
35647;BME280;28680;45.642;13.756;2023-04-09T04:46:01;101681.88;;;9.72;100.00
35647;BME280;28680;45.642;13.756;2023-04-09T04:48:27;101682.47;;;9.47;100.00
35647;BME280;28680;45.642;13.756;2023-04-09T04:50:58;101680.78;;;9.46;100.00
35647;BME280;28680;45.642;13.756;2023-04-09T04:53:24;101689.50;;;9.46;100.00
35647;BME280;28680;45.642;13.756;2023-04-09T04:55:50;101682.63;;;9.29;100.00
35647;BME280;28680;45.642;13.756;2023-04-09T04:58:17;101683.28;;;9.33;100.00
35647;BME280;28680;45.642;13.756;2023-04-09T05:00:43;101686.56;;;9.36;100.00
35647;BME280;28680;45.642;13.756;2023-04-09T05:03:09;101684.59;;;9.99;100.00
35647;BME280;28680;45.642;13.756;2023-04-09T05:05:35;101676.34;;;9.62;100.00
35647;BME280;28680;45.642;13.756;2023-04-09T05:08:01;101687.81;;;9.45;100.00
35647;BME280;28680;45.642;13.756;2023-04-09T05:10:26;101696.66;;;9.59;100.00
35647;BME280;28680;45.642;13.756;2023-04-09T05:12:52;101688.47;;;9.49;100.00
35647;BME280;28680;45.642;13.756;2023-04-09T05:15:18;101685.38;;;9.42;100.00
35647;BME280;28680;45.642;13.756;2023-04-09T05:17:44;101686.25;;;9.27;100.00
35647;BME280;28680;45.642;13.756;2023-04-09T05:20:11;101690.91;;;9.22;100.00
35647;BME280;28680;45.642;13.756;2023-04-09T05:22:37;101699.28;;;9.12;100.00
35647;BME280;28680;45.642;13.756;2023-04-09T05:25:03;101692.50;;;9.24;100.00
35647;BME280;28680;45.642;13.756;2023-04-09T05:27:29;101695.78;;;9.28;100.00
35647;BME280;28680;45.642;13.756;2023-04-09T05:29:55;101697.84;;;9.23;100.00
35647;BME280;28680;45.642;13.756;2023-04-09T05:32:21;101688.44;;;9.34;100.00
35647;BME280;28680;45.642;13.756;2023-04-09T05:34:47;101698.91;;;9.34;100.00
35647;BME280;28680;45.642;13.756;2023-04-09T05:37:13;101696.03;;;9.39;100.00
35647;BME280;28680;45.642;13.756;2023-04-09T05:39:39;101687.53;;;9.50;100.00
35647;BME280;28680;45.642;13.756;2023-04-09T05:42:05;101704.00;;;9.38;100.00
35647;BME280;28680;45.642;13.756;2023-04-09T05:44:31;101706.25;;;9.44;100.00
35647;BME280;28680;45.642;13.756;2023-04-09T05:46:57;101692.13;;;9.46;100.00
35647;BME280;28680;45.642;13.756;2023-04-09T05:49:23;101701.84;;;9.44;100.00
35647;BME280;28680;45.642;13.756;2023-04-09T05:51:49;101723.13;;;9.54;100.00
35647;BME280;28680;45.642;13.756;2023-04-09T05:54:15;101708.06;;;9.57;100.00
35647;BME280;28680;45.642;13.756;2023-04-09T05:56:44;101708.19;;;9.70;100.00
35647;BME280;28680;45.642;13.756;2023-04-09T05:59:10;101715.69;;;9.76;100.00
35647;BME280;28680;45.642;13.756;2023-04-09T06:01:36;101710.94;;;9.83;100.00
35647;BME280;28680;45.642;13.756;2023-04-09T06:04:02;101718.97;;;9.80;100.00
35647;BME280;28680;45.642;13.756;2023-04-09T06:06:28;101716.06;;;9.85;100.00
35647;BME280;28680;45.642;13.756;2023-04-09T06:08:53;101716.16;;;9.83;100.00
35647;BME280;28680;45.642;13.756;2023-04-09T06:11:19;101724.13;;;9.82;100.00
35647;BME280;28680;45.642;13.756;2023-04-09T06:13:47;101732.28;;;9.91;100.00
35647;BME280;28680;45.642;13.756;2023-04-09T06:16:13;101728.94;;;10.04;100.00
35647;BME280;28680;45.642;13.756;2023-04-09T06:18:39;101719.25;;;9.90;100.00
35647;BME280;28680;45.642;13.756;2023-04-09T06:21:07;101723.66;;;9.89;100.00
35647;BME280;28680;45.642;13.756;2023-04-09T06:23:35;101728.91;;;9.89;100.00
35647;BME280;28680;45.642;13.756;2023-04-09T06:26:01;101723.38;;;9.94;100.00
35647;BME280;28680;45.642;13.756;2023-04-09T06:28:28;101740.72;;;9.97;100.00
35647;BME280;28680;45.642;13.756;2023-04-09T06:30:54;101740.09;;;10.22;100.00
35647;BME280;28680;45.642;13.756;2023-04-09T06:33:20;101730.91;;;10.58;100.00
35647;BME280;28680;45.642;13.756;2023-04-09T06:35:47;101727.56;;;11.37;100.00
35647;BME280;28680;45.642;13.756;2023-04-09T06:38:14;101742.72;;;11.06;100.00
35647;BME280;28680;45.642;13.756;2023-04-09T06:40:41;101737.81;;;10.87;100.00
35647;BME280;28680;45.642;13.756;2023-04-09T06:43:07;101732.00;;;10.82;100.00
35647;BME280;28680;45.642;13.756;2023-04-09T06:45:34;101729.38;;;11.09;100.00
35647;BME280;28680;45.642;13.756;2023-04-09T06:48:00;101739.59;;;11.14;100.00
35647;BME280;28680;45.642;13.756;2023-04-09T06:50:26;101745.31;;;10.79;100.00
35647;BME280;28680;45.642;13.756;2023-04-09T06:52:54;101749.22;;;10.86;100.00
35647;BME280;28680;45.642;13.756;2023-04-09T06:55:20;101760.13;;;10.95;100.00
35647;BME280;28680;45.642;13.756;2023-04-09T06:57:46;101748.97;;;10.91;100.00
35647;BME280;28680;45.642;13.756;2023-04-09T07:00:13;101746.72;;;11.39;100.00
35647;BME280;28680;45.642;13.756;2023-04-09T07:02:38;101751.31;;;11.63;100.00
35647;BME280;28680;45.642;13.756;2023-04-09T07:05:05;101753.13;;;11.35;100.00
35647;BME280;28680;45.642;13.756;2023-04-09T07:07:31;101758.81;;;11.42;100.00
35647;BME280;28680;45.642;13.756;2023-04-09T07:09:56;101759.41;;;11.73;100.00
35647;BME280;28680;45.642;13.756;2023-04-09T07:12:30;101762.97;;;11.59;100.00
35647;BME280;28680;45.642;13.756;2023-04-09T07:15:01;101761.28;;;11.58;100.00
35647;BME280;28680;45.642;13.756;2023-04-09T07:17:27;101765.97;;;11.80;100.00
35647;BME280;28680;45.642;13.756;2023-04-09T07:19:54;101763.75;;;11.86;100.00
35647;BME280;28680;45.642;13.756;2023-04-09T07:22:24;101758.63;;;12.11;100.00
35647;BME280;28680;45.642;13.756;2023-04-09T07:24:51;101763.06;;;12.10;100.00
35647;BME280;28680;45.642;13.756;2023-04-09T07:27:25;101762.63;;;12.16;100.00
35647;BME280;28680;45.642;13.756;2023-04-09T07:29:56;101767.66;;;12.45;100.00
35647;BME280;28680;45.642;13.756;2023-04-09T07:32:23;101772.75;;;12.35;100.00
35647;BME280;28680;45.642;13.756;2023-04-09T07:34:53;101764.84;;;12.48;100.00
35647;BME280;28680;45.642;13.756;2023-04-09T07:37:20;101765.66;;;12.48;100.00
35647;BME280;28680;45.642;13.756;2023-04-09T07:39:47;101770.31;;;12.45;100.00
35647;BME280;28680;45.642;13.756;2023-04-09T07:42:13;101765.03;;;12.32;100.00
35647;BME280;28680;45.642;13.756;2023-04-09T07:44:39;101775.69;;;12.31;100.00
35647;BME280;28680;45.642;13.756;2023-04-09T07:47:09;101775.34;;;12.61;100.00
35647;BME280;28680;45.642;13.756;2023-04-09T07:49:37;101783.66;;;12.55;100.00
35647;BME280;28680;45.642;13.756;2023-04-09T07:52:04;101784.19;;;12.73;100.00
35647;BME280;28680;45.642;13.756;2023-04-09T07:54:31;101793.47;;;12.53;100.00
35647;BME280;28680;45.642;13.756;2023-04-09T07:56:58;101776.84;;;12.39;100.00
35647;BME280;28680;45.642;13.756;2023-04-09T07:59:24;101791.38;;;12.58;100.00
35647;BME280;28680;45.642;13.756;2023-04-09T08:01:52;101780.00;;;12.57;100.00
35647;BME280;28680;45.642;13.756;2023-04-09T08:04:18;101797.16;;;12.63;100.00
35647;BME280;28680;45.642;13.756;2023-04-09T08:06:44;101788.16;;;12.78;100.00
35647;BME280;28680;45.642;13.756;2023-04-09T08:09:16;101790.78;;;13.15;100.00
35647;BME280;28680;45.642;13.756;2023-04-09T08:11:43;101807.97;;;13.69;100.00
35647;BME280;28680;45.642;13.756;2023-04-09T08:14:11;101795.28;;;13.74;98.67
35647;BME280;28680;45.642;13.756;2023-04-09T08:16:43;101795.97;;;14.12;96.37
35647;BME280;28680;45.642;13.756;2023-04-09T08:19:10;101803.78;;;14.24;93.97
35647;BME280;28680;45.642;13.756;2023-04-09T08:21:37;101805.25;;;14.51;100.00
35647;BME280;28680;45.642;13.756;2023-04-09T08:24:04;101809.63;;;14.64;98.24
35647;BME280;28680;45.642;13.756;2023-04-09T08:26:31;101810.69;;;14.72;93.89
35647;BME280;28680;45.642;13.756;2023-04-09T08:28:57;101810.19;;;14.90;96.49
35647;BME280;28680;45.642;13.756;2023-04-09T08:31:23;101817.97;;;15.02;100.00
35647;BME280;28680;45.642;13.756;2023-04-09T08:33:49;101817.75;;;14.94;85.45
35647;BME280;28680;45.642;13.756;2023-04-09T08:36:15;101804.19;;;14.99;80.09
35647;BME280;28680;45.642;13.756;2023-04-09T08:38:41;101809.22;;;15.02;80.89
35647;BME280;28680;45.642;13.756;2023-04-09T08:41:07;101818.41;;;15.30;100.00
35647;BME280;28680;45.642;13.756;2023-04-09T08:43:42;101816.94;;;15.37;82.22
35647;BME280;28680;45.642;13.756;2023-04-09T08:46:09;101812.50;;;15.59;82.15
35647;BME280;28680;45.642;13.756;2023-04-09T08:48:36;101811.50;;;15.71;85.90
35647;BME280;28680;45.642;13.756;2023-04-09T08:51:02;101809.44;;;15.86;91.82
35647;BME280;28680;45.642;13.756;2023-04-09T08:53:28;101806.13;;;15.94;81.21
35647;BME280;28680;45.642;13.756;2023-04-09T08:55:54;101804.25;;;16.06;100.00
35647;BME280;28680;45.642;13.756;2023-04-09T08:58:20;101809.78;;;16.24;97.69
35647;BME280;28680;45.642;13.756;2023-04-09T09:00:46;101804.75;;;16.51;79.20
35647;BME280;28680;45.642;13.756;2023-04-09T09:03:11;101812.13;;;16.48;97.01
35647;BME280;28680;45.642;13.756;2023-04-09T09:05:45;101814.72;;;16.69;100.00
35647;BME280;28680;45.642;13.756;2023-04-09T09:08:23;101815.09;;;16.85;91.18
35647;BME280;28680;45.642;13.756;2023-04-09T09:10:49;101819.88;;;16.91;100.00
35647;BME280;28680;45.642;13.756;2023-04-09T09:13:23;101810.84;;;17.13;80.25
35647;BME280;28680;45.642;13.756;2023-04-09T09:16:11;101819.25;;;17.19;99.27
35647;BME280;28680;45.642;13.756;2023-04-09T09:18:43;101812.13;;;17.29;72.51
35647;BME280;28680;45.642;13.756;2023-04-09T09:21:18;101808.06;;;17.44;81.46
35647;BME280;28680;45.642;13.756;2023-04-09T09:23:45;101806.69;;;17.69;100.00
35647;BME280;28680;45.642;13.756;2023-04-09T09:26:17;101799.13;;;17.74;84.37
35647;BME280;28680;45.642;13.756;2023-04-09T09:28:45;101804.16;;;17.97;72.15
35647;BME280;28680;45.642;13.756;2023-04-09T09:31:13;101800.38;;;18.09;65.99
35647;BME280;28680;45.642;13.756;2023-04-09T09:33:40;101794.91;;;18.11;83.40
35647;BME280;28680;45.642;13.756;2023-04-09T09:36:06;101800.34;;;18.19;70.90
35647;BME280;28680;45.642;13.756;2023-04-09T09:38:53;101794.34;;;18.17;100.00
35647;BME280;28680;45.642;13.756;2023-04-09T09:41:20;101805.91;;;18.26;100.00
35647;BME280;28680;45.642;13.756;2023-04-09T09:43:46;101798.97;;;18.53;69.38
35647;BME280;28680;45.642;13.756;2023-04-09T09:46:13;101800.91;;;18.60;68.09
35647;BME280;28680;45.642;13.756;2023-04-09T09:48:40;101792.41;;;18.75;86.36
35647;BME280;28680;45.642;13.756;2023-04-09T09:51:09;101800.22;;;18.86;79.61
35647;BME280;28680;45.642;13.756;2023-04-09T09:53:38;101804.25;;;18.90;100.00
35647;BME280;28680;45.642;13.756;2023-04-09T09:56:06;101806.78;;;18.92;85.92
35647;BME280;28680;45.642;13.756;2023-04-09T09:58:51;101803.16;;;19.11;66.31
35647;BME280;28680;45.642;13.756;2023-04-09T10:01:20;101800.41;;;19.20;80.26
35647;BME280;28680;45.642;13.756;2023-04-09T10:03:49;101807.81;;;19.26;82.21
35647;BME280;28680;45.642;13.756;2023-04-09T10:06:16;101806.59;;;19.39;80.12
35647;BME280;28680;45.642;13.756;2023-04-09T10:08:43;101799.81;;;19.62;60.60
35647;BME280;28680;45.642;13.756;2023-04-09T10:11:10;101804.16;;;19.81;58.43
35647;BME280;28680;45.642;13.756;2023-04-09T10:13:40;101787.94;;;19.93;65.47
35647;BME280;28680;45.642;13.756;2023-04-09T10:16:08;101791.19;;;19.86;62.79
35647;BME280;28680;45.642;13.756;2023-04-09T10:18:34;101805.72;;;19.92;61.62
35647;BME280;28680;45.642;13.756;2023-04-09T10:21:23;101803.28;;;19.99;61.23
35647;BME280;28680;45.642;13.756;2023-04-09T10:23:51;101802.50;;;20.06;72.94
35647;BME280;28680;45.642;13.756;2023-04-09T10:26:18;101795.59;;;20.22;48.28
35647;BME280;28680;45.642;13.756;2023-04-09T10:28:44;101795.16;;;20.35;52.02
35647;BME280;28680;45.642;13.756;2023-04-09T10:31:11;101792.41;;;20.53;54.11
35647;BME280;28680;45.642;13.756;2023-04-09T10:33:37;101790.50;;;20.63;56.56
35647;BME280;28680;45.642;13.756;2023-04-09T10:36:09;101788.91;;;20.87;54.62
35647;BME280;28680;45.642;13.756;2023-04-09T10:38:40;101786.59;;;21.00;49.55
35647;BME280;28680;45.642;13.756;2023-04-09T10:43:47;101796.22;;;20.42;51.36
35647;BME280;28680;45.642;13.756;2023-04-09T10:46:35;101782.91;;;19.90;45.85
35647;BME280;28680;45.642;13.756;2023-04-09T10:49:21;101794.81;;;19.77;46.93
35647;BME280;28680;45.642;13.756;2023-04-09T10:52:11;101789.53;;;19.85;47.46
35647;BME280;28680;45.642;13.756;2023-04-09T10:57:58;101774.88;;;20.76;80.37
35647;BME280;28680;45.642;13.756;2023-04-09T11:00:24;101771.53;;;20.74;71.57
35647;BME280;28680;45.642;13.756;2023-04-09T11:05:38;101769.13;;;21.22;46.54
35647;BME280;28680;45.642;13.756;2023-04-09T11:08:12;101766.09;;;21.00;48.81
35647;BME280;28680;45.642;13.756;2023-04-09T11:10:41;101768.19;;;20.72;48.93
35647;BME280;28680;45.642;13.756;2023-04-09T11:13:18;101766.50;;;20.29;44.91
35647;BME280;28680;45.642;13.756;2023-04-09T11:15:45;101769.03;;;20.38;44.53
35647;BME280;28680;45.642;13.756;2023-04-09T11:18:20;101761.03;;;20.38;45.08
35647;BME280;28680;45.642;13.756;2023-04-09T11:20:46;101755.88;;;19.84;44.75
35647;BME280;28680;45.642;13.756;2023-04-09T11:23:14;101772.38;;;20.06;47.84
35647;BME280;28680;45.642;13.756;2023-04-09T11:25:41;101768.38;;;20.44;46.38
35647;BME280;28680;45.642;13.756;2023-04-09T11:28:07;101768.28;;;21.21;46.22
35647;BME280;28680;45.642;13.756;2023-04-09T11:30:34;101770.50;;;21.51;43.66
35647;BME280;28680;45.642;13.756;2023-04-09T11:33:02;101768.66;;;21.76;43.15
35647;BME280;28680;45.642;13.756;2023-04-09T11:35:28;101772.25;;;22.16;47.52
35647;BME280;28680;45.642;13.756;2023-04-09T11:37:53;101763.19;;;22.33;43.34
35647;BME280;28680;45.642;13.756;2023-04-09T11:40:25;101760.69;;;22.24;45.96
35647;BME280;28680;45.642;13.756;2023-04-09T11:42:54;101768.94;;;22.62;46.38
35647;BME280;28680;45.642;13.756;2023-04-09T11:45:26;101759.47;;;22.43;54.66
35647;BME280;28680;45.642;13.756;2023-04-09T11:47:53;101768.09;;;22.61;45.78
35647;BME280;28680;45.642;13.756;2023-04-09T11:50:19;101765.16;;;22.39;61.57
35647;BME280;28680;45.642;13.756;2023-04-09T11:52:46;101773.84;;;22.42;69.77
35647;BME280;28680;45.642;13.756;2023-04-09T11:55:25;101761.41;;;22.09;45.23
35647;BME280;28680;45.642;13.756;2023-04-09T11:57:57;101761.28;;;21.86;53.13
35647;BME280;28680;45.642;13.756;2023-04-09T12:00:25;101765.50;;;21.72;66.34
35647;BME280;28680;45.642;13.756;2023-04-09T12:03:03;101767.00;;;21.58;52.81
35647;BME280;28680;45.642;13.756;2023-04-09T12:05:33;101768.72;;;20.92;47.38
35647;BME280;28680;45.642;13.756;2023-04-09T12:08:06;101772.31;;;21.17;46.55
35647;BME280;28680;45.642;13.756;2023-04-09T12:10:36;101778.47;;;21.10;44.03
35647;BME280;28680;45.642;13.756;2023-04-09T12:13:08;101778.50;;;21.34;49.51
35647;BME280;28680;45.642;13.756;2023-04-09T12:15:40;101771.13;;;21.28;59.25
35647;BME280;28680;45.642;13.756;2023-04-09T12:18:12;101767.47;;;21.21;50.08
35647;BME280;28680;45.642;13.756;2023-04-09T12:20:43;101753.63;;;21.26;45.83
35647;BME280;28680;45.642;13.756;2023-04-09T12:23:10;101756.75;;;21.05;43.91
35647;BME280;28680;45.642;13.756;2023-04-09T12:25:42;101763.94;;;21.12;43.30
35647;BME280;28680;45.642;13.756;2023-04-09T12:28:11;101766.28;;;21.23;55.13
35647;BME280;28680;45.642;13.756;2023-04-09T12:30:38;101761.63;;;21.26;43.67
35647;BME280;28680;45.642;13.756;2023-04-09T12:33:05;101757.28;;;21.25;47.07
35647;BME280;28680;45.642;13.756;2023-04-09T12:35:31;101765.78;;;21.12;44.50
35647;BME280;28680;45.642;13.756;2023-04-09T12:37:57;101760.09;;;21.15;47.15
35647;BME280;28680;45.642;13.756;2023-04-09T12:40:26;101762.13;;;21.21;51.03
35647;BME280;28680;45.642;13.756;2023-04-09T12:42:52;101757.00;;;20.60;43.34
35647;BME280;28680;45.642;13.756;2023-04-09T12:45:19;101756.56;;;20.98;45.05
35647;BME280;28680;45.642;13.756;2023-04-09T12:47:45;101761.75;;;20.99;41.74
35647;BME280;28680;45.642;13.756;2023-04-09T12:50:13;101753.59;;;21.01;40.66
35647;BME280;28680;45.642;13.756;2023-04-09T12:52:39;101754.31;;;21.44;41.76
35647;BME280;28680;45.642;13.756;2023-04-09T12:55:06;101755.97;;;21.78;40.93